Time;durP1;ratioP1;P1;durP2;ratioP2;P2;SDS_P1;SDS_P2;PMS_P1;PMS_P2;Temp;Humidity;BMP_temperature;BMP_pressure;BME280_temperature;BME280_humidity;BME280_pressure;Samples;Min_cycle;Max_cycle;Signal;HPM_P1;HPM_P2
2021/01/23 00:02:09;;;;;;;13.40;8.88;;;3.50;99.90;;;;;;8324510;28;20021;-68
2021/01/23 00:06:09;;;;;;;10.20;6.78;;;3.40;99.90;;;;;;8322987;28;20029;-68
2021/01/23 00:10:11;;;;;;;7.90;5.20;;;3.30;99.90;;;;;;8324482;28;20167;-68
2021/01/23 00:14:11;;;;;;;8.40;5.22;;;3.20;99.90;;;;;;8322985;28;20025;-68
2021/01/23 00:18:12;;;;;;;9.57;5.60;;;3.00;99.90;;;;;;8324448;28;20021;-68
2021/01/23 00:22:12;;;;;;;8.25;4.25;;;2.90;99.90;;;;;;8329236;28;20053;-68
2021/01/23 00:26:13;;;;;;;6.78;4.00;;;2.70;99.90;;;;;;8330078;28;20503;-68
2021/01/23 00:30:13;;;;;;;6.03;4.20;;;2.60;99.90;;;;;;8330470;28;20561;-67
2021/01/23 00:34:14;;;;;;;5.22;3.50;;;2.40;99.90;;;;;;8330107;28;20033;-68
2021/01/23 00:38:16;;;;;;;4.07;2.92;;;2.30;99.90;;;;;;8331505;28;20451;-68
2021/01/23 00:42:17;;;;;;;2.40;1.73;;;2.20;99.90;;;;;;8330118;28;20562;-68
2021/01/23 00:46:17;;;;;;;4.53;2.63;;;2.10;99.90;;;;;;8328245;28;20025;-68
2021/01/23 00:50:18;;;;;;;3.15;1.95;;;2.00;99.90;;;;;;8329122;28;20460;-68
2021/01/23 00:54:18;;;;;;;1.48;1.38;;;2.10;99.90;;;;;;8329235;28;20022;-68
2021/01/23 00:58:19;;;;;;;2.38;1.80;;;2.00;99.90;;;;;;8327897;28;20025;-68
2021/01/23 01:02:19;;;;;;;2.75;1.92;;;1.90;99.90;;;;;;8327898;28;20025;-68
2021/01/23 01:06:20;;;;;;;2.35;1.77;;;1.90;99.90;;;;;;8329147;28;20024;-68
2021/01/23 01:10:20;;;;;;;2.75;1.90;;;1.90;99.90;;;;;;8329231;28;20025;-68
2021/01/23 01:14:21;;;;;;;2.33;1.85;;;1.90;99.90;;;;;;8327571;28;20559;-69
2021/01/23 01:18:21;;;;;;;1.60;1.27;;;2.10;99.90;;;;;;8328872;28;20076;-68
2021/01/23 01:22:22;;;;;;;1.75;1.40;;;2.10;99.90;;;;;;8326950;28;20116;-67
2021/01/23 01:26:22;;;;;;;1.15;1.02;;;2.00;99.90;;;;;;8328100;28;20088;-68
2021/01/23 01:30:23;;;;;;;1.52;1.20;;;2.00;99.90;;;;;;8328488;28;20034;-68
2021/01/23 01:34:24;;;;;;;1.15;0.98;;;1.80;99.90;;;;;;8327415;28;20026;-68
2021/01/23 01:38:24;;;;;;;0.80;0.75;;;1.80;99.90;;;;;;8327027;28;20024;-68
2021/01/23 01:42:25;;;;;;;0.63;0.63;;;1.80;99.90;;;;;;8328052;28;20022;-68
2021/01/23 01:46:25;;;;;;;1.05;0.80;;;1.80;99.90;;;;;;8327687;28;20398;-68
2021/01/23 01:50:26;;;;;;;0.40;0.40;;;1.70;99.90;;;;;;8327420;28;20373;-68
2021/01/23 01:54:27;;;;;;;0.50;0.50;;;1.70;99.90;;;;;;8327498;28;20091;-68
2021/01/23 01:58:28;;;;;;;0.40;0.40;;;1.60;99.90;;;;;;8327492;28;20108;-69
2021/01/23 02:02:40;;;;;;;1.25;0.50;;;1.60;99.90;;;;;;8327316;28;20030;-68
2021/01/23 02:07:02;;;;;;;0.40;0.40;;;1.50;99.90;;;;;;8327105;28;20067;-68
2021/01/23 02:11:20;;;;;;;0.50;0.50;;;1.50;99.90;;;;;;8327304;28;20036;-68
2021/01/23 02:15:26;;;;;;;0.60;0.60;;;1.50;99.90;;;;;;8325655;28;20029;-68
2021/01/23 02:20:08;;;;;;;0.70;0.70;;;1.60;99.90;;;;;;8325692;28;20026;-68
2021/01/23 02:24:09;;;;;;;0.60;0.60;;;1.60;99.90;;;;;;8326491;28;20071;-69
2021/01/23 02:28:18;;;;;;;0.45;0.40;;;1.50;99.90;;;;;;8326770;28;20026;-67
2021/01/23 02:32:20;;;;;;;0.40;0.40;;;1.50;99.90;;;;;;8325536;28;20021;-68
2021/01/23 02:36:21;;;;;;;0.50;0.30;;;1.40;99.90;;;;;;8326214;28;20025;-67
2021/01/23 02:40:22;;;;;;;0.40;0.40;;;1.30;99.90;;;;;;8326476;28;20105;-68
2021/01/23 02:44:23;;;;;;;0.95;0.50;;;1.30;99.90;;;;;;8324606;28;20025;-68
2021/01/23 02:48:24;;;;;;;0.50;0.47;;;1.40;99.90;;;;;;8326030;28;20029;-69
2021/01/23 02:52:40;;;;;;;0.40;0.40;;;1.40;99.90;;;;;;8325505;28;20614;-69
2021/01/23 02:56:43;;;;;;;0.40;0.40;;;1.50;99.90;;;;;;8325774;28;20051;-69
2021/01/23 03:00:47;;;;;;;0.40;0.40;;;1.40;99.90;;;;;;8325632;28;20466;-69
2021/01/23 03:04:49;;;;;;;0.30;0.30;;;1.40;99.90;;;;;;8325189;28;20615;-68
2021/01/23 03:08:50;;;;;;;0.40;0.40;;;1.40;99.90;;;;;;8323317;28;20096;-68
2021/01/23 03:12:50;;;;;;;0.55;0.55;;;1.50;99.90;;;;;;8324297;28;20403;-69
2021/01/23 03:16:53;;;;;;;0.52;0.52;;;1.40;99.90;;;;;;8325598;28;20071;-68
2021/01/23 03:20:53;;;;;;;0.65;0.60;;;1.50;99.90;;;;;;8323902;28;20029;-68
2021/01/23 03:24:54;;;;;;;0.60;0.60;;;1.50;99.90;;;;;;8323491;28;20056;-69
2021/01/23 03:28:54;;;;;;;0.43;0.43;;;1.40;99.90;;;;;;8324960;28;20052;-69
2021/01/23 03:32:56;;;;;;;1.10;1.00;;;1.50;99.90;;;;;;8324892;28;20041;-68
2021/01/23 03:36:56;;;;;;;0.85;0.68;;;1.50;99.90;;;;;;8324907;28;20120;-68
2021/01/23 03:40:57;;;;;;;0.40;0.40;;;1.50;99.90;;;;;;8324919;28;20029;-68
2021/01/23 03:44:57;;;;;;;0.80;0.80;;;1.60;99.90;;;;;;8323198;28;20137;-68
2021/01/23 03:48:58;;;;;;;0.40;0.40;;;1.50;99.90;;;;;;8323814;28;20025;-68
2021/01/23 03:52:58;;;;;;;0.57;0.57;;;1.40;99.90;;;;;;8323970;28;20103;-68
2021/01/23 03:56:59;;;;;;;0.60;0.60;;;1.40;99.90;;;;;;8329394;28;20033;-67
2021/01/23 04:01:00;;;;;;;0.60;0.57;;;1.40;99.90;;;;;;8331182;28;20091;-68
2021/01/23 04:05:00;;;;;;;0.50;0.50;;;1.50;99.90;;;;;;8330774;28;20034;-68
2021/01/23 04:09:01;;;;;;;0.70;0.70;;;1.50;99.90;;;;;;8331065;28;20378;-68
2021/01/23 04:13:02;;;;;;;0.52;0.50;;;1.40;99.90;;;;;;8330710;28;20033;-68
2021/01/23 04:17:03;;;;;;;0.40;0.40;;;1.40;99.90;;;;;;8330930;28;20387;-68
2021/01/23 04:21:04;;;;;;;0.30;0.28;;;1.40;99.90;;;;;;8329011;28;20032;-68
2021/01/23 04:25:05;;;;;;;0.85;0.55;;;1.50;99.90;;;;;;8329608;28;20013;-68
2021/01/23 04:29:07;;;;;;;0.60;0.60;;;1.40;99.90;;;;;;8330445;28;20025;-68
2021/01/23 04:33:07;;;;;;;1.40;1.17;;;1.40;99.90;;;;;;8328914;28;20416;-68
2021/01/23 04:37:08;;;;;;;2.10;1.80;;;1.40;99.90;;;;;;8330514;28;20061;-68
2021/01/23 04:41:09;;;;;;;1.50;1.30;;;1.40;99.90;;;;;;8329139;28;20026;-69
2021/01/23 04:45:12;;;;;;;2.10;1.80;;;1.40;99.90;;;;;;8328612;28;20022;-68
2021/01/23 04:49:13;;;;;;;1.83;1.15;;;1.40;99.90;;;;;;8329793;28;20029;-69
2021/01/23 04:53:14;;;;;;;1.80;1.42;;;1.40;99.90;;;;;;8328178;28;20408;-68
2021/01/23 04:57:15;;;;;;;0.82;0.63;;;1.40;99.90;;;;;;8329726;28;20036;-68
2021/01/23 05:01:15;;;;;;;1.35;1.13;;;1.30;99.90;;;;;;8343631;28;20458;-69
2021/01/23 05:05:16;;;;;;;0.80;0.63;;;1.30;99.90;;;;;;8360901;28;20442;-70
2021/01/23 05:09:25;;;;;;;1.10;0.90;;;1.30;99.90;;;;;;8346670;28;20689;-69
2021/01/23 05:13:26;;;;;;;1.30;1.15;;;1.20;99.90;;;;;;8344650;28;20234;-69
2021/01/23 05:17:27;;;;;;;2.08;1.40;;;1.20;99.90;;;;;;8333970;28;20037;-69
2021/01/23 05:21:32;;;;;;;1.83;1.40;;;1.30;99.90;;;;;;8334957;28;20032;-68
2021/01/23 05:25:35;;;;;;;1.55;1.23;;;1.30;99.90;;;;;;8341522;28;20052;-69
2021/01/23 05:29:53;;;;;;;2.33;1.85;;;1.30;99.90;;;;;;8345157;28;20028;-69
2021/01/23 05:33:53;;;;;;;2.03;1.42;;;1.40;99.90;;;;;;8340781;28;20089;-69
2021/01/23 05:37:54;;;;;;;1.85;1.52;;;1.40;99.90;;;;;;8341783;28;20107;-68
2021/01/23 05:42:05;;;;;;;1.63;1.30;;;1.40;99.90;;;;;;8343137;28;20091;-68
2021/01/23 05:46:11;;;;;;;2.00;1.75;;;1.40;99.90;;;;;;8347621;28;20025;-68
2021/01/23 05:50:11;;;;;;;1.50;1.40;;;1.40;99.90;;;;;;8343798;28;20636;-68
2021/01/23 05:54:12;;;;;;;1.58;1.10;;;1.40;99.90;;;;;;8345539;28;20069;-68
2021/01/23 05:58:13;;;;;;;2.35;1.70;;;1.30;99.90;;;;;;8336611;28;20033;-68
2021/01/23 06:02:16;;;;;;;2.53;1.90;;;1.40;99.90;;;;;;8345101;28;20044;-68
2021/01/23 06:06:17;;;;;;;2.58;1.67;;;1.30;99.90;;;;;;8348395;28;20029;-69
2021/01/23 06:10:24;;;;;;;4.43;2.30;;;1.30;99.90;;;;;;8350822;28;20078;-68
2021/01/23 06:14:36;;;;;;;5.00;2.78;;;1.30;99.90;;;;;;8341125;28;20087;-69
2021/01/23 06:18:36;;;;;;;3.92;2.28;;;1.20;99.90;;;;;;8341253;28;20067;-68
2021/01/23 06:23:03;;;;;;;2.38;1.67;;;1.30;99.90;;;;;;8341531;28;20107;-68
2021/01/23 06:27:04;;;;;;;1.77;1.17;;;1.30;99.90;;;;;;8360091;28;20032;-69
2021/01/23 06:31:32;;;;;;;2.08;0.98;;;1.30;99.90;;;;;;8338751;28;20082;-68
2021/01/23 06:35:32;;;;;;;3.75;1.92;;;1.30;99.90;;;;;;8339457;28;20079;-69
2021/01/23 06:39:56;;;;;;;2.40;1.80;;;1.20;99.90;;;;;;8342432;28;20017;-68
2021/01/23 06:44:05;;;;;;;9.50;5.53;;;1.30;99.90;;;;;;8340452;28;20017;-69
2021/01/23 06:48:09;;;;;;;17.02;9.65;;;1.20;99.90;;;;;;8341875;28;20021;-69
2021/01/23 06:52:10;;;;;;;6.05;3.22;;;1.20;99.90;;;;;;8340493;28;20037;-69
2021/01/23 06:56:11;;;;;;;3.22;2.15;;;1.20;99.90;;;;;;8343525;28;20053;-68
2021/01/23 07:00:12;;;;;;;1.58;1.00;;;1.20;99.90;;;;;;8344949;28;20037;-69
2021/01/23 07:04:13;;;;;;;10.43;6.25;;;1.30;99.90;;;;;;8333122;28;20033;-68
2021/01/23 07:08:22;;;;;;;5.68;3.42;;;1.20;99.90;;;;;;8339894;28;20552;-69
2021/01/23 07:12:40;;;;;;;3.70;2.77;;;1.20;99.90;;;;;;8348252;28;20100;-68
2021/01/23 07:16:54;;;;;;;5.65;3.67;;;1.10;99.90;;;;;;8342142;28;20030;-69
2021/01/23 07:20:55;;;;;;;3.97;2.67;;;1.20;99.90;;;;;;8343002;28;20086;-70
2021/01/23 07:24:55;;;;;;;3.40;2.22;;;1.20;99.90;;;;;;8345966;28;20030;-67
2021/01/23 07:28:57;;;;;;;3.65;2.58;;;1.20;99.90;;;;;;8355891;28;20043;-68
2021/01/23 07:32:59;;;;;;;27.30;15.32;;;1.40;99.90;;;;;;8351672;28;20033;-67
2021/01/23 07:37:00;;;;;;;23.63;14.32;;;1.30;99.90;;;;;;8346609;28;20032;-67
2021/01/23 07:41:01;;;;;;;14.50;10.25;;;1.50;99.90;;;;;;8350850;28;20652;-68
2021/01/23 07:45:05;;;;;;;5.95;4.70;;;1.40;99.90;;;;;;8335552;28;20033;-69
2021/01/23 07:49:07;;;;;;;5.70;4.28;;;1.40;99.90;;;;;;8339903;28;20021;-68
2021/01/23 07:53:22;;;;;;;5.32;3.78;;;1.60;99.90;;;;;;8344399;28;20033;-71
2021/01/23 07:57:23;;;;;;;4.97;3.58;;;1.70;99.90;;;;;;8337367;28;20032;-71
2021/01/23 08:01:23;;;;;;;4.65;3.55;;;1.70;99.90;;;;;;8333595;28;20033;-71
2021/01/23 08:05:47;;;;;;;4.68;3.22;;;1.70;99.90;;;;;;8321738;28;20052;-73
2021/01/23 08:10:16;;;;;;;4.57;3.47;;;1.70;99.90;;;;;;8349011;28;20029;-73
2021/01/23 08:14:17;;;;;;;3.88;2.90;;;1.60;99.90;;;;;;8358231;28;20032;-73
2021/01/23 08:18:19;;;;;;;4.25;3.50;;;1.90;99.90;;;;;;8358994;28;20326;-73
2021/01/23 08:22:20;;;;;;;4.95;3.88;;;2.00;99.90;;;;;;8357679;28;20056;-73
2021/01/23 08:26:38;;;;;;;6.03;4.18;;;2.10;99.90;;;;;;8349342;28;20018;-73
2021/01/23 08:30:39;;;;;;;4.95;3.88;;;2.10;99.90;;;;;;8324774;28;20025;-73
2021/01/23 08:34:40;;;;;;;5.45;4.05;;;2.40;99.90;;;;;;8342798;28;20025;-72
2021/01/23 08:38:41;;;;;;;6.57;3.30;;;2.50;99.90;;;;;;8351513;28;20455;-73
2021/01/23 08:42:42;;;;;;;5.65;4.32;;;2.40;99.90;;;;;;8359802;28;20076;-72
2021/01/23 08:46:43;;;;;;;8.50;4.65;;;2.40;99.90;;;;;;8363229;28;20052;-73
2021/01/23 08:50:44;;;;;;;5.30;3.10;;;2.60;99.90;;;;;;8362078;28;20025;-73
2021/01/23 08:54:44;;;;;;;5.00;3.25;;;2.60;99.90;;;;;;8362977;28;20565;-73
2021/01/23 08:58:45;;;;;;;6.47;4.50;;;2.70;99.90;;;;;;8362792;28;20098;-72
2021/01/23 09:02:45;;;;;;;7.00;4.20;;;2.80;99.90;;;;;;8361658;28;20788;-72
2021/01/23 09:06:46;;;;;;;7.75;4.32;;;2.90;99.90;;;;;;8361420;28;20110;-72
2021/01/23 09:10:46;;;;;;;8.93;5.38;;;3.00;99.90;;;;;;8342972;28;20060;-72
2021/01/23 09:14:47;;;;;;;9.10;5.20;;;3.10;99.90;;;;;;8329107;28;20037;-72
2021/01/23 09:18:47;;;;;;;8.70;5.13;;;3.20;99.90;;;;;;8328536;28;20033;-72
2021/01/23 09:22:48;;;;;;;7.40;5.57;;;3.10;99.90;;;;;;8327392;28;20029;-73
2021/01/23 09:26:48;;;;;;;5.97;4.35;;;3.00;99.90;;;;;;8337702;28;20020;-73
2021/01/23 09:30:49;;;;;;;4.60;3.70;;;3.10;99.90;;;;;;8346170;28;20067;-72
2021/01/23 09:34:49;;;;;;;4.97;3.80;;;3.10;99.90;;;;;;8343559;28;20022;-72
2021/01/23 09:38:50;;;;;;;5.85;4.03;;;3.40;99.90;;;;;;8342547;28;20030;-72
2021/01/23 09:42:50;;;;;;;6.05;3.78;;;3.50;99.90;;;;;;8327084;28;20030;-72
2021/01/23 09:46:52;;;;;;;4.53;3.67;;;3.80;99.90;;;;;;8327198;28;20021;-73
2021/01/23 09:50:52;;;;;;;3.67;2.40;;;3.90;99.90;;;;;;8339473;28;20037;-72
2021/01/23 09:54:53;;;;;;;4.72;3.55;;;4.30;99.90;;;;;;8345039;28;20033;-72
2021/01/23 09:58:53;;;;;;;4.05;3.42;;;4.40;99.90;;;;;;8333055;28;20056;-72
2021/01/23 10:02:54;;;;;;;2.92;2.63;;;4.70;99.90;;;;;;8326293;28;20040;-72
2021/01/23 10:06:55;;;;;;;2.20;1.95;;;4.90;99.90;;;;;;8341455;28;20052;-72
2021/01/23 10:10:55;;;;;;;4.28;2.78;;;4.60;99.90;;;;;;8342040;28;20112;-69
2021/01/23 10:14:56;;;;;;;3.40;2.80;;;4.50;99.90;;;;;;8339832;28;20033;-68
2021/01/23 10:18:57;;;;;;;3.85;2.85;;;5.10;99.90;;;;;;8349112;28;20033;-70
2021/01/23 10:22:57;;;;;;;4.07;2.95;;;5.20;99.90;;;;;;8352376;28;20029;-69
2021/01/23 10:26:58;;;;;;;3.72;2.50;;;5.10;99.90;;;;;;8342040;28;20049;-69
2021/01/23 10:30:58;;;;;;;4.68;3.08;;;4.70;99.90;;;;;;8345398;28;20401;-70
2021/01/23 10:34:59;;;;;;;3.92;2.90;;;5.00;99.90;;;;;;8343560;28;20025;-69
2021/01/23 10:38:59;;;;;;;2.83;2.15;;;5.80;99.90;;;;;;8340206;28;20035;-69
2021/01/23 10:43:00;;;;;;;3.05;2.60;;;6.00;99.90;;;;;;8347229;28;20514;-68
2021/01/23 10:47:01;;;;;;;3.30;2.53;;;6.00;99.90;;;;;;8357203;28;20032;-67
2021/01/23 10:51:01;;;;;;;3.35;2.70;;;5.60;99.90;;;;;;8358377;28;20128;-68
2021/01/23 10:55:02;;;;;;;3.88;2.50;;;5.80;99.90;;;;;;8357584;28;20116;-69
2021/01/23 10:59:03;;;;;;;3.20;2.17;;;7.20;99.90;;;;;;8358086;28;20029;-68
2021/01/23 11:03:05;;;;;;;3.13;2.38;;;8.10;99.90;;;;;;8356909;28;20028;-69
2021/01/23 11:07:06;;;;;;;2.40;2.20;;;8.70;99.90;;;;;;8353663;28;20082;-70
2021/01/23 11:11:06;;;;;;;2.67;2.20;;;9.10;99.90;;;;;;8327318;28;20026;-69
2021/01/23 11:15:07;;;;;;;2.88;2.13;;;8.10;99.90;;;;;;8323488;28;20623;-70
2021/01/23 11:19:08;;;;;;;3.47;2.67;;;6.80;99.90;;;;;;8323307;28;20065;-70
2021/01/23 11:23:09;;;;;;;4.88;3.25;;;6.10;99.90;;;;;;8326955;28;20492;-69
2021/01/23 11:27:09;;;;;;;8.18;4.28;;;6.20;99.90;;;;;;8336765;28;20510;-69
2021/01/23 11:31:10;;;;;;;8.27;5.47;;;6.60;99.90;;;;;;8338283;28;20017;-69
2021/01/23 11:35:10;;;;;;;3.13;2.70;;;6.50;99.90;;;;;;8333928;28;20036;-69
2021/01/23 11:39:11;;;;;;;4.72;3.30;;;6.80;99.90;;;;;;8340552;28;20041;-69
2021/01/23 11:43:12;;;;;;;6.90;3.63;;;6.50;99.90;;;;;;8351451;28;20112;-69
2021/01/23 11:47:13;;;;;;;5.13;3.92;;;6.60;99.90;;;;;;8324613;28;20028;-70
2021/01/23 11:51:13;;;;;;;9.55;6.18;;;7.00;99.90;;;;;;8340388;28;20033;-69
2021/01/23 11:55:14;;;;;;;10.55;5.88;;;7.00;99.90;;;;;;8355078;28;20039;-69
2021/01/23 11:59:14;;;;;;;3.78;3.22;;;7.20;99.90;;;;;;8335207;28;20663;-71
2021/01/23 12:03:15;;;;;;;6.32;4.22;;;7.30;99.90;;;;;;8343318;28;20698;-70
2021/01/23 12:07:16;;;;;;;7.43;4.63;;;7.00;99.90;;;;;;8340622;28;20029;-72
2021/01/23 12:11:17;;;;;;;5.03;3.92;;;6.80;99.90;;;;;;8337226;28;20071;-72
2021/01/23 12:15:18;;;;;;;4.60;3.28;;;6.30;99.90;;;;;;8340030;28;20033;-72
2021/01/23 12:19:19;;;;;;;9.50;5.57;;;6.40;99.90;;;;;;8348927;28;20033;-72
2021/01/23 12:23:19;;;;;;;8.88;5.68;;;6.70;99.90;;;;;;8340833;28;20022;-72
2021/01/23 12:27:21;;;;;;;5.60;3.42;;;6.70;99.90;;;;;;8342732;28;20113;-69
2021/01/23 12:31:21;;;;;;;17.02;10.55;;;6.90;99.90;;;;;;8341079;28;20388;-73
2021/01/23 12:35:22;;;;;;;6.95;3.17;;;6.90;99.90;;;;;;8337039;28;20025;-72
2021/01/23 12:39:22;;;;;;;4.93;3.67;;;6.40;99.90;;;;;;8342191;28;20078;-71
2021/01/23 12:43:23;;;;;;;4.18;3.45;;;6.80;99.90;;;;;;8335608;28;20029;-68
2021/01/23 12:47:24;;;;;;;6.72;4.22;;;7.20;99.90;;;;;;8336590;28;20072;-70
2021/01/23 12:51:24;;;;;;;10.25;5.72;;;7.40;99.90;;;;;;8344834;28;20044;-69
2021/01/23 12:55:25;;;;;;;11.23;4.63;;;7.50;99.90;;;;;;8335026;28;20060;-67
2021/01/23 12:59:26;;;;;;;11.75;6.55;;;7.90;99.90;;;;;;8333224;28;20109;-67
2021/01/23 13:03:27;;;;;;;10.18;6.55;;;8.40;99.90;;;;;;8339391;28;20095;-66
2021/01/23 13:07:28;;;;;;;8.80;5.03;;;8.50;99.90;;;;;;8338189;28;20507;-68
2021/01/23 13:11:29;;;;;;;7.47;4.35;;;8.70;99.90;;;;;;8341022;28;20340;-68
2021/01/23 13:15:29;;;;;;;5.78;3.67;;;8.60;99.90;;;;;;8343207;28;20029;-68
2021/01/23 13:19:30;;;;;;;9.73;5.10;;;8.70;99.90;;;;;;8329546;28;20034;-71
2021/01/23 13:23:30;;;;;;;7.10;4.63;;;8.80;99.90;;;;;;8330093;28;20174;-71
2021/01/23 13:27:31;;;;;;;5.45;3.85;;;8.90;99.90;;;;;;8330800;28;20166;-68
2021/01/23 13:31:32;;;;;;;6.10;4.22;;;8.80;99.90;;;;;;8335212;28;20043;-73
2021/01/23 13:35:32;;;;;;;10.50;7.20;;;8.60;99.90;;;;;;8345027;28;20041;-72
2021/01/23 13:39:34;;;;;;;6.63;5.22;;;8.30;99.90;;;;;;8338234;28;20090;-71
2021/01/23 13:43:34;;;;;;;9.27;7.50;;;7.90;99.90;;;;;;8337088;28;20447;-71
2021/01/23 13:47:35;;;;;;;11.73;7.43;;;7.20;99.90;;;;;;8338440;28;20017;-71
2021/01/23 13:51:36;;;;;;;24.88;14.85;;;7.20;99.90;;;;;;8344442;28;20018;-72
2021/01/23 13:55:36;;;;;;;5.70;4.07;;;7.40;99.90;;;;;;8342614;28;20083;-70
2021/01/23 13:59:40;;;;;;;13.48;7.05;;;7.10;99.90;;;;;;8336750;28;20032;-69
2021/01/23 14:03:40;;;;;;;25.17;14.65;;;6.90;99.90;;;;;;8352826;28;20131;-70
2021/01/23 14:07:41;;;;;;;8.02;5.50;;;6.90;99.90;;;;;;8341884;28;20208;-71
2021/01/23 14:11:41;;;;;;;7.28;4.50;;;7.20;99.90;;;;;;8345869;28;20013;-74
2021/01/23 14:15:42;;;;;;;10.55;6.55;;;7.30;99.90;;;;;;8347369;28;20080;-71
2021/01/23 14:19:43;;;;;;;12.07;7.60;;;7.10;99.90;;;;;;8336562;28;20032;-71
2021/01/23 14:23:43;;;;;;;13.20;8.00;;;6.90;99.90;;;;;;8333699;28;20029;-71
2021/01/23 14:27:44;;;;;;;8.02;4.78;;;6.90;99.90;;;;;;8360084;22;20048;-72
2021/01/23 14:31:45;;;;;;;8.07;5.22;;;6.80;99.90;;;;;;8345915;28;20094;-69
2021/01/23 14:35:45;;;;;;;8.65;5.03;;;6.60;99.90;;;;;;8349858;28;20135;-67
2021/01/23 14:39:47;;;;;;;12.05;5.50;;;6.20;99.90;;;;;;8341801;28;20029;-68
2021/01/23 14:43:51;;;;;;;9.90;6.20;;;6.00;99.90;;;;;;8352350;28;20029;-71
2021/01/23 14:47:51;;;;;;;10.68;6.18;;;5.80;99.90;;;;;;8338165;28;20025;-69
2021/01/23 14:51:52;;;;;;;9.23;5.65;;;5.70;99.90;;;;;;8330663;28;20037;-70
2021/01/23 14:55:53;;;;;;;5.75;4.65;;;5.40;99.90;;;;;;8329060;28;20029;-72
2021/01/23 14:59:53;;;;;;;8.40;5.63;;;5.00;99.90;;;;;;8347103;28;20036;-73
2021/01/23 15:03:54;;;;;;;18.20;7.90;;;4.90;99.90;;;;;;8333236;28;20043;-71
2021/01/23 15:07:55;;;;;;;23.45;12.93;;;4.60;99.90;;;;;;8341837;28;20047;-70
2021/01/23 15:11:56;;;;;;;27.02;15.15;;;4.30;99.90;;;;;;8349360;28;20107;-70
2021/01/23 15:15:57;;;;;;;8.75;5.80;;;4.10;99.90;;;;;;8352433;28;20035;-69
2021/01/23 15:19:58;;;;;;;7.60;4.40;;;3.80;99.90;;;;;;8349149;28;20480;-69
2021/01/23 15:23:59;;;;;;;5.65;4.13;;;3.20;99.90;;;;;;8348861;28;20086;-69
2021/01/23 15:27:59;;;;;;;9.05;4.88;;;3.00;99.90;;;;;;8355338;28;20017;-70
2021/01/23 15:32:00;;;;;;;30.45;21.23;;;2.90;99.90;;;;;;8357371;28;20037;-69
2021/01/23 15:36:01;;;;;;;9.40;6.22;;;3.00;99.90;;;;;;8351315;28;20039;-70
2021/01/23 15:40:02;;;;;;;11.43;7.60;;;3.10;99.90;;;;;;8343646;28;20524;-70
2021/01/23 15:44:02;;;;;;;12.30;7.57;;;2.90;99.90;;;;;;8346160;28;20021;-70
2021/01/23 15:48:03;;;;;;;11.32;6.82;;;2.60;99.90;;;;;;8346968;28;20488;-70
2021/01/23 15:52:04;;;;;;;20.80;10.88;;;2.30;99.90;;;;;;8356194;28;20028;-70
2021/01/23 15:56:05;;;;;;;28.27;17.90;;;2.10;99.90;;;;;;8353843;28;20033;-70
2021/01/23 16:00:07;;;;;;;54.50;30.67;;;1.90;99.90;;;;;;8356709;28;20783;-70
2021/01/23 16:04:08;;;;;;;25.83;15.73;;;1.70;99.90;;;;;;8356540;28;20062;-70
2021/01/23 16:08:09;;;;;;;29.92;17.05;;;1.70;99.90;;;;;;8352032;28;20025;-71
2021/01/23 16:12:09;;;;;;;29.52;17.42;;;1.50;99.90;;;;;;8357059;28;20037;-70
2021/01/23 16:16:10;;;;;;;17.70;10.32;;;1.30;99.90;;;;;;8357378;28;20116;-70
2021/01/23 16:20:12;;;;;;;23.45;15.32;;;1.10;99.90;;;;;;8360874;28;20278;-70
2021/01/23 16:24:12;;;;;;;22.70;13.32;;;1.00;99.90;;;;;;8352528;28;20036;-69
2021/01/23 16:28:14;;;;;;;9.80;6.53;;;1.30;99.90;;;;;;8351056;28;20029;-70
2021/01/23 16:32:14;;;;;;;8.88;5.22;;;1.20;99.90;;;;;;8355325;28;20047;-70
2021/01/23 16:36:17;;;;;;;8.48;5.20;;;0.90;99.90;;;;;;8355282;28;20037;-70
2021/01/23 16:40:19;;;;;;;8.23;4.97;;;0.90;99.90;;;;;;8348949;28;20017;-72
2021/01/23 16:44:20;;;;;;;8.10;5.32;;;1.00;99.90;;;;;;8341648;28;20033;-72
2021/01/23 16:48:21;;;;;;;13.32;7.22;;;1.10;99.90;;;;;;8346862;28;20024;-70
2021/01/23 16:52:22;;;;;;;13.75;8.38;;;1.10;99.90;;;;;;8350544;28;20515;-69
2021/01/23 16:56:22;;;;;;;21.75;11.20;;;1.00;99.90;;;;;;8349584;28;20116;-69
2021/01/23 17:00:24;;;;;;;25.25;13.77;;;0.90;99.90;;;;;;8353470;28;20091;-70
2021/01/23 17:04:24;;;;;;;28.17;14.82;;;1.20;99.90;;;;;;8352325;28;20035;-70
2021/01/23 17:08:28;;;;;;;10.20;6.90;;;1.10;99.90;;;;;;8346470;28;20021;-70
2021/01/23 17:12:29;;;;;;;10.48;6.45;;;1.20;99.90;;;;;;8349297;28;20592;-70
2021/01/23 17:16:29;;;;;;;10.95;6.85;;;1.20;99.90;;;;;;8337238;28;20064;-70
2021/01/23 17:20:30;;;;;;;11.93;7.20;;;1.10;99.90;;;;;;8329883;28;20052;-70
2021/01/23 17:24:31;;;;;;;11.02;7.68;;;1.10;99.90;;;;;;8329528;28;20034;-70
2021/01/23 17:28:32;;;;;;;11.82;7.85;;;1.00;99.90;;;;;;8327013;28;20029;-69
2021/01/23 17:32:32;;;;;;;13.43;7.95;;;0.90;99.90;;;;;;8328667;28;20400;-71
2021/01/23 17:36:33;;;;;;;11.63;7.82;;;0.80;99.90;;;;;;8326679;28;20036;-70
2021/01/23 17:40:35;;;;;;;11.23;7.57;;;0.80;99.90;;;;;;8332098;28;20034;-70
2021/01/23 17:44:38;;;;;;;12.93;8.13;;;0.80;99.90;;;;;;8326553;28;20022;-70
2021/01/23 17:48:38;;;;;;;15.90;9.90;;;0.90;99.90;;;;;;8347962;28;20469;-71
2021/01/23 17:52:39;;;;;;;23.90;13.00;;;0.90;99.90;;;;;;8339748;28;20037;-66
2021/01/23 17:56:39;;;;;;;23.77;13.55;;;0.80;99.90;;;;;;8341526;28;20126;-68
2021/01/23 18:00:40;;;;;;;31.02;16.27;;;0.80;99.90;;;;;;8337307;28;20150;-68
2021/01/23 18:04:41;;;;;;;34.22;16.65;;;0.80;99.90;;;;;;8333146;28;20367;-67
2021/01/23 18:08:42;;;;;;;34.90;17.02;;;0.80;99.90;;;;;;8341066;28;20056;-67
2021/01/23 18:12:43;;;;;;;25.27;15.27;;;0.60;99.90;;;;;;8338595;28;20047;-67
2021/01/23 18:16:44;;;;;;;25.10;14.05;;;0.60;99.90;;;;;;8342347;28;20404;-69
2021/01/23 18:20:45;;;;;;;28.23;16.58;;;0.50;99.90;;;;;;8347155;28;20078;-68
2021/01/23 18:24:46;;;;;;;34.38;18.73;;;0.50;99.90;;;;;;8356145;28;20029;-69
2021/01/23 18:28:47;;;;;;;31.90;17.73;;;0.60;99.90;;;;;;8353700;28;20041;-72
2021/01/23 18:32:47;;;;;;;42.63;25.60;;;0.40;99.90;;;;;;8348043;28;20024;-66
2021/01/23 18:36:49;;;;;;;19.25;10.95;;;0.40;99.90;;;;;;8354725;28;20055;-69
2021/01/23 18:40:51;;;;;;;13.13;7.40;;;0.60;99.90;;;;;;8332343;28;20040;-69
2021/01/23 18:44:52;;;;;;;13.35;8.10;;;0.70;99.90;;;;;;8331561;28;20047;-70
2021/01/23 18:48:53;;;;;;;11.95;7.50;;;0.70;99.90;;;;;;8337361;28;20136;-69
2021/01/23 18:52:53;;;;;;;14.52;8.70;;;0.70;99.90;;;;;;8337947;28;20025;-69
2021/01/23 18:56:54;;;;;;;12.45;7.85;;;1.00;99.90;;;;;;8337625;28;20029;-70
2021/01/23 19:00:54;;;;;;;17.73;9.60;;;1.00;99.90;;;;;;8331755;28;20025;-70
2021/01/23 19:04:55;;;;;;;35.33;17.50;;;0.90;99.90;;;;;;8346133;28;20038;-70
2021/01/23 19:08:55;;;;;;;30.63;14.75;;;1.00;99.90;;;;;;8344083;28;20021;-71
2021/01/23 19:12:56;;;;;;;30.30;14.40;;;1.00;99.90;;;;;;8344013;28;20053;-70
2021/01/23 19:16:57;;;;;;;16.92;10.05;;;1.00;99.90;;;;;;8345631;28;20025;-70
2021/01/23 19:20:59;;;;;;;14.70;8.43;;;1.00;99.90;;;;;;8341087;28;20395;-71
2021/01/23 19:24:59;;;;;;;15.48;9.52;;;1.20;99.90;;;;;;8343395;28;20048;-72
2021/01/23 19:29:00;;;;;;;21.23;11.07;;;1.10;99.90;;;;;;8353687;28;20028;-70
2021/01/23 19:33:00;;;;;;;17.60;9.77;;;1.00;99.90;;;;;;8345729;28;20036;-70
2021/01/23 19:37:01;;;;;;;13.88;7.95;;;1.20;99.90;;;;;;8346066;28;20036;-72
2021/01/23 19:41:02;;;;;;;16.02;9.82;;;1.30;99.90;;;;;;8345387;28;20111;-71
2021/01/23 19:45:03;;;;;;;10.20;4.57;;;1.30;99.90;;;;;;8342576;28;20103;-69
2021/01/23 19:49:07;;;;;;;7.28;3.17;;;1.40;99.90;;;;;;8344703;28;20694;-69
2021/01/23 19:53:10;;;;;;;5.35;2.88;;;1.60;99.90;;;;;;8349369;28;20087;-66
2021/01/23 19:57:10;;;;;;;5.30;3.17;;;1.90;99.90;;;;;;8350612;28;20495;-68
2021/01/23 20:01:14;;;;;;;5.75;3.20;;;1.80;99.90;;;;;;8345590;28;20028;-69
2021/01/23 20:05:17;;;;;;;5.60;3.13;;;1.70;99.90;;;;;;8345447;28;20021;-70
2021/01/23 20:09:18;;;;;;;9.60;5.85;;;1.70;99.90;;;;;;8343251;28;20558;-74
2021/01/23 20:13:19;;;;;;;10.82;7.20;;;1.50;99.90;;;;;;8343195;28;20039;-71
2021/01/23 20:17:19;;;;;;;14.75;8.90;;;1.50;99.90;;;;;;8343973;28;20513;-72
2021/01/23 20:21:20;;;;;;;15.50;8.77;;;1.50;99.90;;;;;;8344323;28;20068;-71
2021/01/23 20:25:21;;;;;;;14.48;9.85;;;1.40;99.90;;;;;;8350196;28;20429;-72
2021/01/23 20:29:22;;;;;;;9.70;6.45;;;1.40;99.90;;;;;;8352003;28;20112;-69
2021/01/23 20:33:22;;;;;;;7.38;4.90;;;1.50;99.90;;;;;;8344153;28;20020;-71
2021/01/23 20:37:23;;;;;;;8.77;5.25;;;1.60;99.90;;;;;;8345364;28;20040;-72
2021/01/23 20:41:24;;;;;;;6.53;4.22;;;1.70;99.90;;;;;;8339659;28;20063;-70
2021/01/23 20:45:25;;;;;;;17.23;10.05;;;1.70;99.90;;;;;;8442467;22;20060;-69
2021/01/23 20:49:25;;;;;;;19.05;10.25;;;1.70;99.90;;;;;;8368964;28;20025;-69
2021/01/23 20:53:26;;;;;;;17.08;10.75;;;1.90;99.90;;;;;;8346431;28;20043;-69
2021/01/23 20:57:27;;;;;;;17.95;10.07;;;1.80;99.90;;;;;;8362471;28;20107;-69
2021/01/23 21:01:27;;;;;;;12.38;7.25;;;1.50;99.90;;;;;;8353051;28;20029;-69
2021/01/23 21:05:28;;;;;;;11.02;6.97;;;1.40;99.90;;;;;;8355716;28;20029;-68
2021/01/23 21:09:29;;;;;;;12.50;7.57;;;1.20;99.90;;;;;;8359940;28;20025;-67